Time;durP1;ratioP1;P1;durP2;ratioP2;P2;SDS_P1;SDS_P2;PMS_P1;PMS_P2;Temp;Humidity;BMP_temperature;BMP_pressure;BME280_temperature;BME280_humidity;BME280_pressure;Samples;Min_cycle;Max_cycle;Signal;HPM_P1;HPM_P2
2021/12/10 00:00:14;;;;;;;6.40;2.97;;;;;;;;;;5072885;28;20182;-74
2021/12/10 00:02:46;;;;;;;6.10;2.63;;;;;;;;;;5072593;28;20457;-74
2021/12/10 00:05:13;;;;;;;5.82;2.28;;;;;;;;;;5072599;28;20416;-74
2021/12/10 00:07:40;;;;;;;12.60;3.23;;;;;;;;;;5072708;28;20175;-74
2021/12/10 00:10:08;;;;;;;12.32;2.97;;;;;;;;;;5076905;28;20455;-74
2021/12/10 00:12:36;;;;;;;5.90;2.07;;;;;;;;;;5080885;28;20167;-74
2021/12/10 00:15:03;;;;;;;12.85;3.45;;;;;;;;;;5075070;28;20431;-74
2021/12/10 00:17:29;;;;;;;10.27;2.40;;;;;;;;;;5074492;28;20649;-74
2021/12/10 00:19:58;;;;;;;15.20;3.40;;;;;;;;;;5072575;28;20228;-74
2021/12/10 00:22:37;;;;;;;7.03;2.47;;;;;;;;;;5072319;28;20449;-74
2021/12/10 00:25:07;;;;;;;12.20;2.43;;;;;;;;;;5072862;28;20225;-73
2021/12/10 00:27:33;;;;;;;6.43;2.25;;;;;;;;;;5072225;28;20534;-73
2021/12/10 00:30:04;;;;;;;6.70;2.27;;;;;;;;;;5072346;28;20183;-73
2021/12/10 00:32:34;;;;;;;4.77;1.73;;;;;;;;;;5079025;28;20438;-73
2021/12/10 00:35:03;;;;;;;12.80;3.03;;;;;;;;;;5074751;28;20466;-73
2021/12/10 00:37:29;;;;;;;21.70;4.07;;;;;;;;;;5072308;28;20880;-73
2021/12/10 00:39:56;;;;;;;17.60;3.50;;;;;;;;;;5072611;28;20266;-73
2021/12/10 00:42:25;;;;;;;25.67;4.47;;;;;;;;;;5072770;28;20757;-74
2021/12/10 00:44:51;;;;;;;7.10;2.45;;;;;;;;;;5072470;28;20202;-74
2021/12/10 00:47:18;;;;;;;11.47;3.27;;;;;;;;;;5076013;28;20171;-74
2021/12/10 00:49:44;;;;;;;7.55;2.38;;;;;;;;;;5075853;28;20393;-74
2021/12/10 00:52:11;;;;;;;12.53;2.37;;;;;;;;;;5079320;28;20648;-74
2021/12/10 00:54:37;;;;;;;13.40;3.17;;;;;;;;;;5080878;28;20433;-74
2021/12/10 00:57:04;;;;;;;11.53;2.90;;;;;;;;;;5077104;28;20413;-74
2021/12/10 00:59:30;;;;;;;15.67;2.93;;;;;;;;;;5075825;28;20417;-74
2021/12/10 01:01:56;;;;;;;7.93;2.13;;;;;;;;;;5077937;28;20464;-74
2021/12/10 01:04:26;;;;;;;21.33;3.13;;;;;;;;;;5082331;28;20413;-74
2021/12/10 01:06:53;;;;;;;7.73;1.93;;;;;;;;;;5075528;28;20404;-74
2021/12/10 01:09:25;;;;;;;6.35;2.30;;;;;;;;;;5075823;28;20420;-74
2021/12/10 01:11:53;;;;;;;6.00;1.80;;;;;;;;;;5077980;28;20638;-74
2021/12/10 01:14:30;;;;;;;7.30;2.10;;;;;;;;;;5075279;28;20413;-74
2021/12/10 01:25:25;;;;;;;7.78;2.53;;;;;;;;;;5075347;28;20400;-74
2021/12/10 01:27:50;;;;;;;12.37;3.80;;;;;;;;;;5075284;28;20221;-73
2021/12/10 01:30:16;;;;;;;20.57;2.97;;;;;;;;;;5075237;28;20429;-73
2021/12/10 01:32:46;;;;;;;8.30;2.13;;;;;;;;;;5081218;28;20427;-73
2021/12/10 01:35:15;;;;;;;5.90;2.60;;;;;;;;;;5080346;28;20900;-73
2021/12/10 01:37:41;;;;;;;7.53;2.17;;;;;;;;;;5075196;28;20905;-73
2021/12/10 01:40:08;;;;;;;8.40;2.93;;;;;;;;;;5074832;28;20413;-73
2021/12/10 01:42:44;;;;;;;7.53;2.03;;;;;;;;;;5075776;28;20510;-73
2021/12/10 01:45:19;;;;;;;8.10;2.67;;;;;;;;;;5078204;28;20449;-73
2021/12/10 01:47:45;;;;;;;18.10;3.30;;;;;;;;;;5085412;28;20860;-73
2021/12/10 01:50:12;;;;;;;7.47;2.50;;;;;;;;;;5081897;28;20418;-73
2021/12/10 01:52:38;;;;;;;15.87;3.03;;;;;;;;;;5076658;28;20428;-73
2021/12/10 01:55:05;;;;;;;13.83;3.43;;;;;;;;;;5080600;28;20455;-73
2021/12/10 01:57:33;;;;;;;18.42;3.42;;;;;;;;;;5083348;28;20456;-74
2021/12/10 01:59:59;;;;;;;11.40;2.25;;;;;;;;;;5074886;28;20187;-74
2021/12/10 02:02:28;;;;;;;17.50;3.85;;;;;;;;;;5074818;28;20245;-74
2021/12/10 02:04:54;;;;;;;7.87;2.90;;;;;;;;;;5074328;28;20189;-74
2021/12/10 02:07:21;;;;;;;14.83;3.60;;;;;;;;;;5074705;28;20429;-74
2021/12/10 02:09:48;;;;;;;6.63;2.07;;;;;;;;;;5074488;28;20465;-74
2021/12/10 02:12:15;;;;;;;15.23;2.60;;;;;;;;;;5080114;28;20409;-73
2021/12/10 02:14:42;;;;;;;8.17;2.33;;;;;;;;;;5085081;28;20775;-73
2021/12/10 02:17:08;;;;;;;15.60;3.40;;;;;;;;;;5074217;28;20409;-73
2021/12/10 02:19:35;;;;;;;9.10;2.90;;;;;;;;;;5074210;28;20405;-74
2021/12/10 02:22:01;;;;;;;5.27;1.90;;;;;;;;;;5074188;28;20540;-73
2021/12/10 02:24:27;;;;;;;18.60;3.37;;;;;;;;;;5075291;28;20841;-73
2021/12/10 02:26:55;;;;;;;6.73;2.33;;;;;;;;;;5074466;28;20907;-73
2021/12/10 02:29:23;;;;;;;4.77;2.07;;;;;;;;;;5074018;28;20413;-73
2021/12/10 02:31:49;;;;;;;21.52;4.40;;;;;;;;;;5073921;28;20429;-73
2021/12/10 02:34:15;;;;;;;7.50;1.75;;;;;;;;;;5084283;28;20174;-73
2021/12/10 02:36:42;;;;;;;10.93;2.60;;;;;;;;;;5080193;28;20228;-73
2021/12/10 02:39:12;;;;;;;4.77;1.90;;;;;;;;;;5076784;28;20420;-73
2021/12/10 02:41:39;;;;;;;4.60;1.92;;;;;;;;;;5079615;28;20479;-74
2021/12/10 02:44:07;;;;;;;11.13;3.20;;;;;;;;;;5082557;28;20555;-74
2021/12/10 02:46:33;;;;;;;10.30;2.97;;;;;;;;;;5078258;28;20768;-74
2021/12/10 02:48:59;;;;;;;21.57;2.30;;;;;;;;;;5078051;28;20499;-74
2021/12/10 02:51:26;;;;;;;28.97;3.70;;;;;;;;;;5073512;28;20474;-74
2021/12/10 02:53:53;;;;;;;9.07;2.07;;;;;;;;;;5078509;28;20417;-74
2021/12/10 02:56:20;;;;;;;6.80;2.23;;;;;;;;;;5080470;28;20500;-73
2021/12/10 02:58:48;;;;;;;11.02;1.75;;;;;;;;;;5073359;28;20555;-73
2021/12/10 03:01:23;;;;;;;11.10;3.40;;;;;;;;;;5073296;28;20542;-73
2021/12/10 03:03:49;;;;;;;7.45;2.35;;;;;;;;;;5075431;28;20416;-73
2021/12/10 03:06:17;;;;;;;19.00;3.13;;;;;;;;;;5076397;28;20542;-73
2021/12/10 03:08:44;;;;;;;7.27;1.77;;;;;;;;;;5072326;28;20904;-73
2021/12/10 03:11:11;;;;;;;10.57;3.20;;;;;;;;;;5078975;28;20799;-73
2021/12/10 03:13:37;;;;;;;10.10;2.35;;;;;;;;;;5081708;28;20417;-73
2021/12/10 03:16:05;;;;;;;14.37;2.90;;;;;;;;;;5075837;28;20221;-73
2021/12/10 03:18:31;;;;;;;5.80;1.97;;;;;;;;;;5073377;28;20884;-73
2021/12/10 03:20:57;;;;;;;9.93;2.15;;;;;;;;;;5071915;28;20429;-73
2021/12/10 03:23:23;;;;;;;9.95;2.50;;;;;;;;;;5075777;28;20207;-73
2021/12/10 03:25:49;;;;;;;7.70;2.03;;;;;;;;;;5074898;28;20222;-73
2021/12/10 03:28:15;;;;;;;2.92;1.38;;;;;;;;;;5073325;28;20405;-73
2021/12/10 03:30:43;;;;;;;6.17;1.47;;;;;;;;;;5076055;28;20175;-73
2021/12/10 03:33:09;;;;;;;18.50;3.50;;;;;;;;;;5072880;28;20413;-73
2021/12/10 03:35:41;;;;;;;5.93;1.63;;;;;;;;;;5087739;28;20421;-73
2021/12/10 03:38:07;;;;;;;5.80;1.63;;;;;;;;;;5072736;28;20923;-73
2021/12/10 03:40:33;;;;;;;9.02;2.20;;;;;;;;;;5073425;28;20486;-73
2021/12/10 03:42:59;;;;;;;15.40;3.10;;;;;;;;;;5083142;28;20194;-73
2021/12/10 03:45:28;;;;;;;6.20;1.67;;;;;;;;;;5085066;28;20428;-73
2021/12/10 03:47:54;;;;;;;19.00;2.80;;;;;;;;;;5072586;28;20413;-73
2021/12/10 03:50:30;;;;;;;14.10;2.00;;;;;;;;;;5073864;28;20482;-73
2021/12/10 03:52:57;;;;;;;14.25;2.90;;;;;;;;;;5072261;28;20171;-73
2021/12/10 03:55:23;;;;;;;13.33;1.70;;;;;;;;;;5073139;28;20717;-73
2021/12/10 03:57:50;;;;;;;6.30;1.92;;;;;;;;;;5072945;28;20397;-73
2021/12/10 04:00:19;;;;;;;5.53;1.50;;;;;;;;;;5072970;28;20273;-73
2021/12/10 04:02:45;;;;;;;12.73;2.63;;;;;;;;;;5072685;28;20459;-73
2021/12/10 04:05:11;;;;;;;10.50;2.55;;;;;;;;;;5072812;28;20179;-73
2021/12/10 04:07:37;;;;;;;11.10;2.45;;;;;;;;;;5072717;28;20175;-73
2021/12/10 04:10:05;;;;;;;14.32;2.53;;;;;;;;;;5074458;28;20181;-73
2021/12/10 04:12:31;;;;;;;5.90;1.85;;;;;;;;;;5092938;28;20228;-74
2021/12/10 04:14:57;;;;;;;4.28;1.27;;;;;;;;;;5083522;28;20171;-74
2021/12/10 04:17:24;;;;;;;14.90;3.17;;;;;;;;;;5072694;28;20174;-74
2021/12/10 04:19:51;;;;;;;10.57;2.22;;;;;;;;;;5072879;28;20181;-74
2021/12/10 04:22:17;;;;;;;9.02;1.95;;;;;;;;;;5076373;28;20340;-74
2021/12/10 04:24:43;;;;;;;10.48;2.08;;;;;;;;;;5076506;28;20187;-74
2021/12/10 04:27:10;;;;;;;6.30;1.40;;;;;;;;;;5081516;28;20178;-74
2021/12/10 04:29:37;;;;;;;6.28;1.75;;;;;;;;;;5077445;28;20477;-74
2021/12/10 04:32:03;;;;;;;30.90;4.40;;;;;;;;;;5080517;28;20207;-74
2021/12/10 04:34:30;;;;;;;18.40;3.33;;;;;;;;;;5087029;28;20642;-74
2021/12/10 04:36:56;;;;;;;9.98;2.15;;;;;;;;;;5077684;28;20171;-74
2021/12/10 04:39:24;;;;;;;16.33;2.85;;;;;;;;;;5078755;28;20659;-74
2021/12/10 04:41:50;;;;;;;7.45;1.98;;;;;;;;;;5079574;28;20199;-74
2021/12/10 04:44:16;;;;;;;6.05;2.15;;;;;;;;;;5075084;28;20213;-73
2021/12/10 04:46:42;;;;;;;18.33;2.40;;;;;;;;;;5076237;28;20186;-73
2021/12/10 04:49:12;;;;;;;16.23;2.13;;;;;;;;;;5079212;28;20175;-73
2021/12/10 04:51:58;;;;;;;12.55;1.58;;;2.50;1.00;;;;;;5076109;28;20907;-73
2021/12/10 04:54:26;;;;;;;5.38;1.17;;;;;;;;;;5074076;28;20201;-73
2021/12/10 04:56:54;;;;;;;6.43;1.70;;;;;;;;;;5076183;28;20284;-73
2021/12/10 04:59:22;;;;;;;12.15;2.78;;;;;;;;;;5077600;28;20510;-73
2021/12/10 05:01:49;;;;;;;10.77;2.90;;;;;;;;;;5075745;28;20206;-73
2021/12/10 05:04:15;;;;;;;7.18;2.42;;;;;;;;;;5075520;28;20190;-73
2021/12/10 05:06:42;;;;;;;7.72;1.95;;;;;;;;;;5080927;28;20178;-73
2021/12/10 05:09:10;;;;;;;7.80;2.08;;;;;;;;;;5079745;28;20626;-73
2021/12/10 05:11:36;;;;;;;23.27;4.03;;;;;;;;;;5083105;28;20181;-73
2021/12/10 05:14:03;;;;;;;9.20;2.55;;;;;;;;;;5095932;28;20209;-73
2021/12/10 05:16:29;;;;;;;9.07;2.92;;;;;;;;;;5089850;28;20189;-73
2021/12/10 05:18:58;;;;;;;10.45;2.47;;;;;;;;;;5076149;28;20179;-73
2021/12/10 05:21:26;;;;;;;10.85;3.22;;;;;;;;;;5083082;28;20201;-73
2021/12/10 05:23:53;;;;;;;15.07;2.63;;;;;;;;;;5076158;28;20175;-73
2021/12/10 05:26:19;;;;;;;17.15;3.67;;;;;;;;;;5080680;28;20170;-73
2021/12/10 05:28:45;;;;;;;10.20;2.95;;;;;;;;;;5075431;28;20197;-74
2021/12/10 05:31:11;;;;;;;8.55;2.85;;;;;;;;;;5078800;28;20649;-74
2021/12/10 05:33:37;;;;;;;11.50;2.85;;;;;;;;;;5074346;28;20652;-74
2021/12/10 05:36:04;;;;;;;8.80;2.75;;;;;;;;;;5075234;28;20262;-74
2021/12/10 05:38:31;;;;;;;15.45;3.50;;;;;;;;;;5074873;28;20210;-74
2021/12/10 05:40:57;;;;;;;21.45;4.45;;;;;;;;;;5075170;28;20202;-74
2021/12/10 05:43:23;;;;;;;10.85;3.28;;;;;;;;;;5075036;28;20230;-74
2021/12/10 05:45:50;;;;;;;12.02;3.50;;;;;;;;;;5080057;28;20174;-74
2021/12/10 05:48:16;;;;;;;18.00;4.38;;;;;;;;;;5075213;28;20213;-74
2021/12/10 05:50:43;;;;;;;12.07;3.17;;;;;;;;;;5078141;28;20175;-74
2021/12/10 05:53:10;;;;;;;39.63;5.47;;;;;;;;;;5074338;28;20666;-74
2021/12/10 05:55:37;;;;;;;12.45;3.45;;;;;;;;;;5084154;28;20576;-74
2021/12/10 05:58:04;;;;;;;11.38;3.45;;;;;;;;;;5080267;28;20183;-74
2021/12/10 06:00:32;;;;;;;6.07;2.95;;;;;;;;;;5078907;28;20186;-76
2021/12/10 06:02:58;;;;;;;19.05;2.95;;;;;;;;;;5077572;28;20198;-76
2021/12/10 06:05:25;;;;;;;8.68;3.15;;;;;;;;;;5078072;28;20304;-74
2021/12/10 06:07:52;;;;;;;10.20;3.30;;;;;;;;;;5080742;28;20321;-74
2021/12/10 06:10:18;;;;;;;10.70;3.65;;;;;;;;;;5076429;28;20171;-74
2021/12/10 06:12:45;;;;;;;13.60;3.80;;;;;;;;;;5081041;28;20634;-74
2021/12/10 06:15:12;;;;;;;10.40;3.38;;;;;;;;;;5076751;28;20183;-74
2021/12/10 06:17:38;;;;;;;11.43;3.15;;;;;;;;;;5074236;28;20175;-75
2021/12/10 06:20:05;;;;;;;19.40;3.97;;;;;;;;;;5077382;28;20182;-73
2021/12/10 06:22:31;;;;;;;27.10;5.28;;;;;;;;;;5088308;28;20668;-73
2021/12/10 06:24:57;;;;;;;16.17;3.40;;;;;;;;;;5073620;28;20562;-73
2021/12/10 06:27:23;;;;;;;6.30;2.90;;;;;;;;;;5073897;28;20178;-73
2021/12/10 06:29:49;;;;;;;13.07;3.33;;;;;;;;;;5074353;28;20520;-73
2021/12/10 06:32:15;;;;;;;20.95;4.85;;;;;;;;;;5076832;28;20562;-74
2021/12/10 06:34:41;;;;;;;9.60;3.45;;;;;;;;;;5073745;28;20183;-73
2021/12/10 06:37:07;;;;;;;22.05;4.03;;;;;;;;;;5084850;28;20235;-73
2021/12/10 06:39:33;;;;;;;10.05;3.70;;;;;;;;;;5074067;28;20178;-73
2021/12/10 06:42:00;;;;;;;16.23;4.03;;;;;;;;;;5073389;28;20230;-73
2021/12/10 06:44:26;;;;;;;10.20;3.20;;;;;;;;;;5074735;28;20657;-72
2021/12/10 06:46:52;;;;;;;22.70;5.03;;;;;;;;;;5079433;28;20178;-72
2021/12/10 06:49:18;;;;;;;19.60;5.05;;;;;;;;;;5073892;28;20653;-73
2021/12/10 06:51:45;;;;;;;14.23;4.00;;;;;;;;;;5075728;28;20178;-73
2021/12/10 06:54:11;;;;;;;29.45;4.65;;;;;;;;;;5085942;28;20182;-72
2021/12/10 06:56:39;;;;;;;24.13;5.20;;;;;;;;;;5088207;28;20174;-72
2021/12/10 06:59:06;;;;;;;25.23;5.90;;;;;;;;;;5074333;28;20202;-73
2021/12/10 07:01:33;;;;;;;16.27;4.53;;;;;;;;;;5075141;28;20199;-73
2021/12/10 07:04:00;;;;;;;14.60;3.92;;;;;;;;;;5078453;28;20190;-73
2021/12/10 07:06:28;;;;;;;18.55;4.68;;;;;;;;;;5073854;28;20177;-73
2021/12/10 07:08:54;;;;;;;20.77;4.63;;;;;;;;;;5076963;28;20668;-73
2021/12/10 07:11:21;;;;;;;12.00;3.55;;;;;;;;;;5084123;28;20686;-73
2021/12/10 07:13:50;;;;;;;23.60;5.60;;;;;;;;;;5074860;28;20170;-73
2021/12/10 07:16:17;;;;;;;106.20;12.25;;;;;;;;;;5066534;28;20186;-74
2021/12/10 07:18:44;;;;;;;15.63;4.03;;;;;;;;;;5082442;28;20229;-74
2021/12/10 07:21:10;;;;;;;9.35;3.47;;;;;;;;;;5074689;28;20175;-74
2021/12/10 07:23:37;;;;;;;19.05;4.05;;;;;;;;;;5076287;28;20270;-76
2021/12/10 07:26:04;;;;;;;10.95;3.95;;;;;;;;;;5077555;28;20180;-74
2021/12/10 07:28:30;;;;;;;36.70;6.10;;;;;;;;;;5080548;28;20228;-74
2021/12/10 07:30:56;;;;;;;7.97;3.20;;;;;;;;;;5080459;28;20183;-74
2021/12/10 07:33:23;;;;;;;8.43;2.97;;;;;;;;;;5078063;28;20181;-74
2021/12/10 07:35:49;;;;;;;10.90;3.60;;;;;;;;;;5075795;28;20590;-74
2021/12/10 07:38:16;;;;;;;4.97;2.67;;;;;;;;;;5085201;28;20178;-74
2021/12/10 07:40:42;;;;;;;7.40;2.83;;;;;;;;;;5074500;28;20232;-74
2021/12/10 07:43:09;;;;;;;16.45;4.05;;;;;;;;;;5079695;28;20198;-74
2021/12/10 07:45:35;;;;;;;8.10;3.25;;;;;;;;;;5074837;28;20509;-74
2021/12/10 07:48:07;;;;;;;9.60;3.17;;;;;;;;;;5081039;28;20174;-74
2021/12/10 07:50:35;;;;;;;12.23;3.72;;;;;;;;;;5072699;28;20614;-74
2021/12/10 07:53:02;;;;;;;14.25;3.85;;;;;;;;;;5072425;28;20179;-75
2021/12/10 07:55:30;;;;;;;14.20;3.05;;;;;;;;;;5079235;28;20644;-77
2021/12/10 07:57:56;;;;;;;12.27;3.92;;;;;;;;;;5076481;28;20175;-74
2021/12/10 08:00:23;;;;;;;10.50;3.28;;;;;;;;;;5072971;28;20399;-73
2021/12/10 08:02:49;;;;;;;6.90;3.15;;;;;;;;;;5073372;28;20722;-74
2021/12/10 08:05:16;;;;;;;12.07;3.50;;;;;;;;;;5081860;28;20182;-74
2021/12/10 08:07:42;;;;;;;9.25;3.30;;;;;;;;;;5072940;28;20494;-74
2021/12/10 08:10:10;;;;;;;19.33;4.80;;;;;;;;;;5072972;28;20629;-74
2021/12/10 08:12:36;;;;;;;22.25;5.28;;;;;;;;;;5077063;28;20420;-74
2021/12/10 08:15:03;;;;;;;11.93;3.35;;;;;;;;;;5078721;28;20185;-73
2021/12/10 08:17:29;;;;;;;25.83;5.20;;;;;;;;;;5073577;28;20190;-74
2021/12/10 08:19:56;;;;;;;12.90;3.25;;;;;;;;;;5072095;28;20179;-74
2021/12/10 08:22:22;;;;;;;8.57;2.70;;;;;;;;;;5072194;28;20289;-74
2021/12/10 08:24:51;;;;;;;28.77;5.78;;;;;;;;;;5076357;28;20738;-74
2021/12/10 08:27:19;;;;;;;17.05;4.15;;;;;;;;;;5074224;28;20236;-74
2021/12/10 08:29:48;;;;;;;13.98;3.92;;;;;;;;;;5072441;28;20558;-73
2021/12/10 08:32:19;;;;;;;26.13;5.40;;;;;;;;;;5076360;28;20191;-74
2021/12/10 08:34:47;;;;;;;11.13;3.10;;;;;;;;;;5085951;28;20170;-73
2021/12/10 08:37:17;;;;;;;9.50;2.97;;;;;;;;;;5095122;28;20576;-74
2021/12/10 08:39:44;;;;;;;11.70;3.25;;;;;;;;;;5083289;28;20395;-74
2021/12/10 08:42:14;;;;;;;31.42;6.43;;;;;;;;;;5085796;28;20194;-74
2021/12/10 08:44:42;;;;;;;6.20;2.72;;;;;;;;;;5081094;28;20175;-73
2021/12/10 08:47:10;;;;;;;14.02;2.97;;;;;;;;;;5073042;28;20536;-74
2021/12/10 08:49:42;;;;;;;9.93;3.20;;;;;;;;;;5072641;28;20178;-74
2021/12/10 08:52:10;;;;;;;10.48;3.47;;;;;;;;;;5081820;28;20622;-74
2021/12/10 08:54:37;;;;;;;12.32;2.95;;;;;;;;;;5077685;28;20179;-74
2021/12/10 08:57:03;;;;;;;9.63;3.33;;;;;;;;;;5079357;28;20182;-74
2021/12/10 08:59:29;;;;;;;9.07;2.65;;;;;;;;;;5082424;28;20509;-73
2021/12/10 09:01:58;;;;;;;7.80;2.45;;;;;;;;;;5084283;28;20218;-74
2021/12/10 09:04:25;;;;;;;4.22;2.33;;;;;;;;;;5078628;28;20181;-74
2021/12/10 09:06:54;;;;;;;8.35;3.00;;;;;;;;;;5075240;28;20625;-74
2021/12/10 09:09:20;;;;;;;16.58;4.40;;;;;;;;;;5082257;28;20167;-74
2021/12/10 09:11:48;;;;;;;17.92;3.95;;;;;;;;;;5076699;28;20187;-74
2021/12/10 09:14:15;;;;;;;18.45;3.58;;;;;;;;;;5076138;28;20243;-74
2021/12/10 09:16:41;;;;;;;9.52;2.53;;;;;;;;;;5084537;28;20606;-74
2021/12/10 09:19:11;;;;;;;4.10;1.60;;;;;;;;;;5075412;28;20190;-74
2021/12/10 09:21:37;;;;;;;11.70;2.60;;;;;;;;;;5075362;28;20236;-74
2021/12/10 09:24:06;;;;;;;19.57;2.80;;;;;;;;;;5078822;28;20171;-74
2021/12/10 09:26:36;;;;;;;8.35;2.00;;;;;;;;;;5082559;28;20427;-74
2021/12/10 09:29:04;;;;;;;3.97;1.35;;;;;;;;;;5075999;28;20198;-74
2021/12/10 09:31:30;;;;;;;8.25;1.90;;;;;;;;;;5075350;28;20598;-74
2021/12/10 09:33:58;;;;;;;11.25;2.72;;;;;;;;;;5075144;28;20182;-74
2021/12/10 09:36:25;;;;;;;16.20;3.30;;;;;;;;;;5085475;28;20174;-74
2021/12/10 09:38:51;;;;;;;12.43;3.35;;;;;;;;;;5076492;28;20179;-74
2021/12/10 09:41:17;;;;;;;9.40;2.70;;;;;;;;;;5074880;28;20174;-74
2021/12/10 09:43:43;;;;;;;8.65;2.50;;;;;;;;;;5076024;28;20537;-74
2021/12/10 09:46:09;;;;;;;8.05;1.85;;;;;;;;;;5075271;28;20236;-73
2021/12/10 09:48:36;;;;;;;9.90;2.30;;;;;;;;;;5075911;28;20195;-74
2021/12/10 09:51:22;;;;;;;8.27;2.33;;;;;;;;;;5090745;28;20175;-74
2021/12/10 09:53:49;;;;;;;8.88;2.40;;;;;;;;;;5077896;28;20630;-74
2021/12/10 09:56:17;;;;;;;7.10;1.83;;;;;;;;;;5082245;28;20525;-74
2021/12/10 09:58:43;;;;;;;5.13;1.88;;;;;;;;;;5074932;28;20179;-74
2021/12/10 10:01:18;;;;;;;14.57;2.55;;;;;;;;;;5078035;28;20220;-74
2021/12/10 10:03:48;;;;;;;9.48;2.33;;;;;;;;;;5074761;28;20179;-74
2021/12/10 10:06:15;;;;;;;4.63;1.23;;;;;;;;;;5073984;28;20183;-74
2021/12/10 10:08:41;;;;;;;16.08;2.95;;;;;;;;;;5076627;28;20193;-74
2021/12/10 10:11:09;;;;;;;8.75;1.85;;;;;;;;;;5089309;28;20198;-74
2021/12/10 10:13:38;;;;;;;7.88;1.27;;;;;;;;;;5082301;28;20179;-74
2021/12/10 10:16:04;;;;;;;6.63;1.85;;;;;;;;;;5080528;28;20585;-74
2021/12/10 10:18:33;;;;;;;4.40;1.73;;;;;;;;;;5080382;28;20209;-74
2021/12/10 10:21:01;;;;;;;4.53;1.70;;;;;;;;;;5082074;28;20565;-74
2021/12/10 10:23:29;;;;;;;6.03;1.98;;;;;;;;;;5086834;28;20659;-74
2021/12/10 10:25:57;;;;;;;6.00;1.38;;;;;;;;;;5081463;28;20171;-74
2021/12/10 10:28:23;;;;;;;14.65;2.65;;;;;;;;;;5093758;28;20590;-74
2021/12/10 10:30:57;;;;;;;9.57;2.10;;;;;;;;;;5075210;28;20240;-74
2021/12/10 10:33:23;;;;;;;12.05;2.53;;;;;;;;;;5074287;28;20486;-74
2021/12/10 10:35:51;;;;;;;10.85;2.25;;;;;;;;;;5076444;28;20210;-75
2021/12/10 10:38:22;;;;;;;7.07;2.00;;;;;;;;;;5091624;28;20182;-75
2021/12/10 10:40:52;;;;;;;6.80;2.10;;;;;;;;;;5087426;28;20919;-74
2021/12/10 10:43:24;;;;;;;15.50;2.53;;;;;;;;;;5083786;28;20453;-77
2021/12/10 10:45:50;;;;;;;5.93;1.90;;;;;;;;;;5073426;28;20413;-74
2021/12/10 10:48:17;;;;;;;13.20;2.83;;;;;;;;;;5075899;28;20428;-74
2021/12/10 10:51:01;;;;;;;9.60;2.40;;;;;;;;;;5084474;28;20409;-74
2021/12/10 10:53:30;;;;;;;30.50;2.60;;;;;;;;;;5086711;28;20404;-74
2021/12/10 10:56:01;;;;;;;9.13;2.20;;;;;;;;;;5075823;28;20467;-75
2021/12/10 10:58:30;;;;;;;6.27;1.63;;;;;;;;;;5073582;28;20171;-75
2021/12/10 11:01:13;;;;;;;9.73;2.23;;;;;;;;;;5079300;28;20413;-76
2021/12/10 11:03:52;;;;;;;8.10;1.80;;;;;;;;;;5073121;28;21088;-75
2021/12/10 11:06:21;;;;;;;8.40;1.90;;;;;;;;;;5073379;28;20405;-76
2021/12/10 11:08:49;;;;;;;12.60;1.40;;;;;;;;;;5080405;28;20437;-75
2021/12/10 11:11:27;;;;;;;5.23;1.60;;;;;;;;;;5088532;28;20405;-74
2021/12/10 11:14:07;;;;;;;8.53;2.07;;;;;;;;;;5072964;28;20408;-83
2021/12/10 11:16:35;;;;;;;4.97;1.60;;;;;;;;;;5073471;28;20401;-75
2021/12/10 11:19:07;;;;;;;7.43;1.97;;;;;;;;;;5073087;28;20409;-75
2021/12/10 11:21:39;;;;;;;10.03;2.07;;;;;;;;;;5072929;28;20397;-75
2021/12/10 11:24:08;;;;;;;4.80;1.63;;;;;;;;;;5072937;28;20911;-74
2021/12/10 11:26:53;;;;;;;4.30;1.70;;;;;;;;;;5079897;28;20408;-74
2021/12/10 11:29:28;;;;;;;8.40;1.90;;;;;;;;;;5084935;28;20475;-73
2021/12/10 11:32:01;;;;;;;6.63;1.63;;;;;;;;;;5072794;28;20432;-73
2021/12/10 11:34:54;;;;;;;5.23;1.67;;;;;;;;;;5072820;28;20419;-74
2021/12/10 11:38:04;;;;;;;6.47;1.60;;;5.70;1.00;;;;;;5030524;28;20419;-74
2021/12/10 11:40:49;;;;;;;9.43;2.10;;;;;;;;;;4952442;29;20948;-74
2021/12/10 11:48:48;;;;;;;22.57;3.67;;;;;;;;;;4940962;28;20914;-74
2021/12/10 11:51:16;;;;;;;8.70;1.67;;;;;;;;;;4932726;28;20438;-74
2021/12/10 11:53:48;;;;;;;12.90;2.50;;;;;;;;;;4951165;28;20806;-74
2021/12/10 11:56:17;;;;;;;7.20;2.00;;;;;;;;;;4945174;29;20777;-74
2021/12/10 11:58:44;;;;;;;10.87;2.33;;;;;;;;;;4942648;29;20509;-74
2021/12/10 12:01:18;;;;;;;4.63;1.27;;;;;;;;;;4947595;29;20437;-74
2021/12/10 12:03:44;;;;;;;10.27;2.30;;;;;;;;;;4952381;29;20564;-73
2021/12/10 12:06:16;;;;;;;12.80;2.60;;;;;;;;;;4951003;29;20771;-73
2021/12/10 12:08:42;;;;;;;17.07;3.03;;;;;;;;;;4943147;29;21259;-73
2021/12/10 12:11:09;;;;;;;5.50;1.70;;;;;;;;;;4952151;29;20423;-73
2021/12/10 12:13:39;;;;;;;10.90;2.03;;;;;;;;;;4968212;28;21034;-73
2021/12/10 12:16:13;;;;;;;6.73;2.00;;;;;;;;;;5067198;28;20419;-74
2021/12/10 12:18:53;;;;;;;20.77;3.60;;;;;;;;;;5078104;28;20420;-75
2021/12/10 12:21:37;;;;;;;7.60;1.80;;;;;;;;;;5080770;28;20415;-75
2021/12/10 12:27:06;;;;;;;8.73;2.10;;;;;;;;;;5089394;28;20415;-74
2021/12/10 12:29:36;;;;;;;6.60;1.47;;;;;;;;;;5082239;28;20420;-74
2021/12/10 12:32:08;;;;;;;6.93;1.53;;;;;;;;;;5077486;28;20437;-75
2021/12/10 12:34:34;;;;;;;3.70;1.20;;;;;;;;;;5073310;28;20868;-74
2021/12/10 12:37:05;;;;;;;5.10;1.67;;;;;;;;;;5073048;28;20781;-75
2021/12/10 12:39:33;;;;;;;7.33;1.53;;;;;;;;;;5073043;28;20421;-75
2021/12/10 12:42:01;;;;;;;6.17;1.47;;;;;;;;;;5075026;28;20549;-74
2021/12/10 12:44:40;;;;;;;9.87;1.77;;;;;;;;;;5076806;28;20891;-75
2021/12/10 12:47:14;;;;;;;5.10;1.50;;;;;;;;;;5077315;28;20409;-75
2021/12/10 12:49:49;;;;;;;9.90;2.27;;;;;;;;;;5089830;28;20454;-74
2021/12/10 12:52:26;;;;;;;5.07;1.50;;;;;;;;;;5082282;28;20883;-74
2021/12/10 12:55:15;;;;;;;5.70;1.70;;;;;;;;;;5078725;28;20407;-74
2021/12/10 12:57:43;;;;;;;9.73;2.30;;;;;;;;;;5082912;28;20442;-74
2021/12/10 13:00:16;;;;;;;8.23;1.63;;;;;;;;;;5090760;28;20473;-74
2021/12/10 13:02:42;;;;;;;10.23;2.73;;;;;;;;;;5095871;28;20451;-74
2021/12/10 13:05:10;;;;;;;10.40;2.07;;;;;;;;;;5096111;28;20690;-74
2021/12/10 13:07:37;;;;;;;6.40;1.73;;;;;;;;;;5095931;28;20404;-75
2021/12/10 13:10:08;;;;;;;9.10;2.20;;;;;;;;;;5095646;28;20676;-75
2021/12/10 13:12:55;;;;;;;4.90;1.50;;;;;;;;;;5095866;28;20411;-75
2021/12/10 13:15:27;;;;;;;5.60;1.53;;;;;;;;;;5095639;28;20780;-75
2021/12/10 13:17:57;;;;;;;24.63;2.97;;;;;;;;;;5095518;28;20409;-75
2021/12/10 13:20:25;;;;;;;14.10;2.60;;;;;;;;;;5095843;28;20891;-74
2021/12/10 13:22:53;;;;;;;10.37;2.23;;;;;;;;;;5083840;28;20548;-75
2021/12/10 13:25:20;;;;;;;10.90;1.90;;;;;;;;;;5085195;28;20417;-75
2021/12/10 13:27:46;;;;;;;9.73;2.60;;;;;;;;;;5075272;28;20406;-75
2021/12/10 13:30:20;;;;;;;6.80;1.97;;;;;;;;;;5075369;28;20513;-74
2021/12/10 13:32:47;;;;;;;11.20;2.20;;;;;;;;;;5080547;28;20452;-74
2021/12/10 13:35:15;;;;;;;6.57;1.73;;;;;;;;;;5075326;28;20420;-74
2021/12/10 13:37:41;;;;;;;71.47;9.90;;;;;;;;;;5073320;28;20428;-74
2021/12/10 13:40:08;;;;;;;7.90;2.23;;;;;;;;;;5078898;28;20880;-75
2021/12/10 13:42:35;;;;;;;5.07;1.73;;;;;;;;;;5074555;28;20560;-74
2021/12/10 13:45:01;;;;;;;5.20;1.83;;;;;;;;;;5080388;28;20421;-74
2021/12/10 13:47:32;;;;;;;34.50;5.03;;;;;;;;;;5080384;28;20417;-79
2021/12/10 13:49:58;;;;;;;15.40;2.63;;;;;;;;;;5078152;28;20429;-74
2021/12/10 13:52:43;;;;;;;4.13;1.23;;;;;;;;;;5082641;28;20446;-77
2021/12/10 13:55:24;;;;;;;12.63;2.53;;;;;;;;;;5084509;28;20431;-77
2021/12/10 13:58:09;;;;;;;10.50;1.97;;;;;;;;;;5078182;28;20420;-74
2021/12/10 14:01:09;;;;;;;10.50;2.07;;;5.60;1.00;;;;;;5078628;28;20421;-79
2021/12/10 14:03:37;;;;;;;9.87;1.87;;;;;;;;;;5003325;28;20467;-75
2021/12/10 14:06:03;;;;;;;20.43;2.17;;;;;;;;;;4996073;28;20480;-73
2021/12/10 14:08:30;;;;;;;8.60;2.67;;;;;;;;;;4995880;28;20540;-73
2021/12/10 14:11:02;;;;;;;11.07;2.77;;;;;;;;;;4999199;28;21019;-73
2021/12/10 14:13:33;;;;;;;10.00;3.07;;;;;;;;;;5005392;28;20459;-73
2021/12/10 14:16:05;;;;;;;6.07;1.77;;;;;;;;;;5012866;28;20552;-73
2021/12/10 14:18:37;;;;;;;7.97;2.50;;;;;;;;;;5012216;28;20558;-73
2021/12/10 14:21:05;;;;;;;11.53;2.90;;;;;;;;;;5005266;28;20500;-72
2021/12/10 14:23:35;;;;;;;16.40;3.60;;;;;;;;;;4993376;28;20978;-72
2021/12/10 14:26:06;;;;;;;6.90;1.93;;;;;;;;;;4999373;28;20981;-73
2021/12/10 14:28:41;;;;;;;13.00;3.00;;;;;;;;;;4993779;28;20419;-74
2021/12/10 14:31:08;;;;;;;5.50;1.73;;;;;;;;;;5006028;28;20586;-73
2021/12/10 14:33:38;;;;;;;6.97;2.13;;;;;;;;;;5004626;28;20426;-73
2021/12/10 14:36:19;;;;;;;5.80;1.83;;;;;;;;;;5005446;28;20938;-74
2021/12/10 14:38:55;;;;;;;5.53;1.97;;;;;;;;;;4995456;28;20425;-75
2021/12/10 14:41:24;;;;;;;7.60;1.97;;;;;;;;;;5079973;28;20416;-75
2021/12/10 14:43:52;;;;;;;7.27;2.10;;;;;;;;;;5081081;28;20484;-74
2021/12/10 14:46:18;;;;;;;5.60;1.50;;;;;;;;;;5073603;28;20409;-74
2021/12/10 14:49:03;;;;;;;4.40;1.60;;;;;;;;;;5073417;28;20417;-74
2021/12/10 14:51:29;;;;;;;3.60;1.40;;;;;;;;;;5073688;28;20420;-73
2021/12/10 14:54:10;;;;;;;6.43;1.55;;;;;;;;;;5073354;28;20888;-73
2021/12/10 14:56:41;;;;;;;7.00;1.83;;;;;;;;;;5082352;28;20567;-73
2021/12/10 14:59:10;;;;;;;12.15;2.42;;;;;;;;;;5073356;28;20496;-73
2021/12/10 15:01:37;;;;;;;9.05;2.30;;;;;;;;;;5073351;28;20209;-73